KAEX/AEX METAR and TAF weather

Enter ICAO airport designator
Station Type Date Time Source
KAEX METAR 2021/03/01 09:53 UTC NOAA

KAEX 010953Z 25003KT 6SM BR OVC016 21/19 A2992 RMK AO2 SLP135 T02110189


Station Type Date Time Source
KAEX Decoded METAR 2021/03/01 09:53 UTC NOAA

ALEXANDRIA INTERNATIONAL AIRPORT, LA, United States (KAEX) 31-33N 092-56W 27M
Mar 01, 2021 - 04:53 AM EST / 2021.03.01 0953 UTC
Wind: from the WSW (250 degrees) at 3 MPH (3 KT):0
Visibility: 6 mile(s):0
Sky conditions: overcast
Weather: mist
Temperature: 70.0 F (21.1 C)
Dew Point: 66.0 F (18.9 C)
Relative Humidity: 87%
Pressure (altimeter): 29.92 in. Hg (1013 hPa)
ob: KAEX 010953Z 25003KT 6SM BR OVC016 21/19 A2992 RMK AO2 SLP135 T02110189
cycle: 10

Station Type Date Time Source
KAEX TAF 2021/03/01 06:27 UTC NOAA

TAF KAEX 010523Z 0106/0206 19007KT P6SM OVC015
FM011000 VRB05KT 5SM BR VCSH OVC009
FM011400 02010KT 4SM -SHRA BR OVC007
FM011800 04014G20KT 5SM -SHRA BR OVC012
FM020000 05010KT P6SM -SHRA OVC015

Example: see airport list